sensor_id;sensor_type;location;lat;lon;timestamp;P1;durP1;ratioP1;P2;durP2;ratioP2
16669;SDS011;8448;52.034;5.158;2023-07-29T00:00:44;2.83;;;1.70;;
16669;SDS011;8448;52.034;5.158;2023-07-29T00:03:12;2.53;;;1.60;;
16669;SDS011;8448;52.034;5.158;2023-07-29T00:05:40;3.88;;;1.80;;
16669;SDS011;8448;52.034;5.158;2023-07-29T00:08:08;3.58;;;2.03;;
16669;SDS011;8448;52.034;5.158;2023-07-29T00:10:36;2.38;;;2.03;;
16669;SDS011;8448;52.034;5.158;2023-07-29T00:13:04;4.38;;;2.20;;
16669;SDS011;8448;52.034;5.158;2023-07-29T00:15:31;5.07;;;2.03;;
16669;SDS011;8448;52.034;5.158;2023-07-29T00:17:59;4.05;;;2.70;;
16669;SDS011;8448;52.034;5.158;2023-07-29T00:20:26;3.35;;;2.20;;
16669;SDS011;8448;52.034;5.158;2023-07-29T00:22:55;3.05;;;2.15;;
16669;SDS011;8448;52.034;5.158;2023-07-29T00:25:23;5.28;;;2.28;;
16669;SDS011;8448;52.034;5.158;2023-07-29T00:27:51;4.03;;;2.22;;
16669;SDS011;8448;52.034;5.158;2023-07-29T00:30:20;4.45;;;2.60;;
16669;SDS011;8448;52.034;5.158;2023-07-29T00:32:48;5.05;;;2.75;;
16669;SDS011;8448;52.034;5.158;2023-07-29T00:35:15;4.13;;;2.65;;
16669;SDS011;8448;52.034;5.158;2023-07-29T00:37:43;3.28;;;2.50;;
16669;SDS011;8448;52.034;5.158;2023-07-29T00:40:14;4.65;;;2.70;;
16669;SDS011;8448;52.034;5.158;2023-07-29T00:42:43;3.55;;;2.53;;
16669;SDS011;8448;52.034;5.158;2023-07-29T00:45:10;4.20;;;2.90;;
16669;SDS011;8448;52.034;5.158;2023-07-29T00:47:38;5.55;;;2.40;;
16669;SDS011;8448;52.034;5.158;2023-07-29T00:50:06;5.65;;;2.85;;
16669;SDS011;8448;52.034;5.158;2023-07-29T00:52:34;7.32;;;3.45;;
16669;SDS011;8448;52.034;5.158;2023-07-29T00:55:02;6.90;;;3.63;;
16669;SDS011;8448;52.034;5.158;2023-07-29T00:57:31;5.22;;;3.30;;
16669;SDS011;8448;52.034;5.158;2023-07-29T00:59:59;6.13;;;3.10;;
16669;SDS011;8448;52.034;5.158;2023-07-29T01:02:28;6.05;;;3.45;;
16669;SDS011;8448;52.034;5.158;2023-07-29T01:04:58;4.57;;;2.90;;
16669;SDS011;8448;52.034;5.158;2023-07-29T01:07:27;5.38;;;3.20;;
16669;SDS011;8448;52.034;5.158;2023-07-29T01:10:00;5.47;;;3.28;;
16669;SDS011;8448;52.034;5.158;2023-07-29T01:12:34;6.43;;;3.30;;
16669;SDS011;8448;52.034;5.158;2023-07-29T01:15:09;4.53;;;3.17;;
16669;SDS011;8448;52.034;5.158;2023-07-29T01:17:40;6.03;;;2.80;;
16669;SDS011;8448;52.034;5.158;2023-07-29T01:20:11;5.82;;;3.45;;
16669;SDS011;8448;52.034;5.158;2023-07-29T01:22:40;5.00;;;3.25;;
16669;SDS011;8448;52.034;5.158;2023-07-29T01:25:10;9.30;;;3.80;;
16669;SDS011;8448;52.034;5.158;2023-07-29T01:27:38;6.88;;;3.60;;
16669;SDS011;8448;52.034;5.158;2023-07-29T01:30:05;5.93;;;3.72;;
16669;SDS011;8448;52.034;5.158;2023-07-29T01:32:35;7.88;;;3.58;;
16669;SDS011;8448;52.034;5.158;2023-07-29T01:35:09;5.85;;;3.80;;
16669;SDS011;8448;52.034;5.158;2023-07-29T01:37:41;6.10;;;3.78;;
16669;SDS011;8448;52.034;5.158;2023-07-29T01:40:11;9.20;;;3.90;;
16669;SDS011;8448;52.034;5.158;2023-07-29T01:42:38;6.95;;;4.00;;
16669;SDS011;8448;52.034;5.158;2023-07-29T01:45:06;6.55;;;4.00;;
16669;SDS011;8448;52.034;5.158;2023-07-29T01:47:34;7.78;;;4.10;;
16669;SDS011;8448;52.034;5.158;2023-07-29T01:50:01;8.18;;;4.10;;
16669;SDS011;8448;52.034;5.158;2023-07-29T01:52:29;9.25;;;4.50;;
16669;SDS011;8448;52.034;5.158;2023-07-29T01:54:57;7.38;;;4.50;;
16669;SDS011;8448;52.034;5.158;2023-07-29T01:57:25;6.97;;;4.40;;
16669;SDS011;8448;52.034;5.158;2023-07-29T01:59:53;7.22;;;4.50;;
16669;SDS011;8448;52.034;5.158;2023-07-29T02:02:20;11.32;;;5.22;;
16669;SDS011;8448;52.034;5.158;2023-07-29T02:04:48;8.13;;;4.95;;
16669;SDS011;8448;52.034;5.158;2023-07-29T02:07:17;6.40;;;4.40;;
16669;SDS011;8448;52.034;5.158;2023-07-29T02:09:45;7.07;;;4.10;;
16669;SDS011;8448;52.034;5.158;2023-07-29T02:12:12;8.95;;;5.05;;
16669;SDS011;8448;52.034;5.158;2023-07-29T02:14:41;7.15;;;4.00;;
16669;SDS011;8448;52.034;5.158;2023-07-29T02:17:08;7.85;;;4.68;;
16669;SDS011;8448;52.034;5.158;2023-07-29T02:19:36;7.22;;;4.60;;
16669;SDS011;8448;52.034;5.158;2023-07-29T02:22:03;5.25;;;4.00;;
16669;SDS011;8448;52.034;5.158;2023-07-29T02:24:31;7.30;;;3.97;;
16669;SDS011;8448;52.034;5.158;2023-07-29T02:26:58;6.18;;;3.80;;
16669;SDS011;8448;52.034;5.158;2023-07-29T02:29:26;5.65;;;3.90;;
16669;SDS011;8448;52.034;5.158;2023-07-29T02:31:55;5.70;;;3.10;;
16669;SDS011;8448;52.034;5.158;2023-07-29T02:34:23;4.95;;;3.20;;
16669;SDS011;8448;52.034;5.158;2023-07-29T02:36:50;4.57;;;3.03;;
16669;SDS011;8448;52.034;5.158;2023-07-29T02:39:18;4.07;;;3.15;;
16669;SDS011;8448;52.034;5.158;2023-07-29T02:41:45;5.93;;;3.30;;
16669;SDS011;8448;52.034;5.158;2023-07-29T02:44:13;4.05;;;3.03;;
16669;SDS011;8448;52.034;5.158;2023-07-29T02:46:41;3.53;;;2.65;;
16669;SDS011;8448;52.034;5.158;2023-07-29T02:49:10;6.18;;;3.35;;
16669;SDS011;8448;52.034;5.158;2023-07-29T02:51:37;3.78;;;2.60;;
16669;SDS011;8448;52.034;5.158;2023-07-29T02:54:05;4.25;;;2.83;;
16669;SDS011;8448;52.034;5.158;2023-07-29T02:56:32;5.10;;;2.55;;
16669;SDS011;8448;52.034;5.158;2023-07-29T02:59:00;4.55;;;2.97;;
16669;SDS011;8448;52.034;5.158;2023-07-29T03:01:27;4.95;;;2.30;;
16669;SDS011;8448;52.034;5.158;2023-07-29T03:03:55;4.97;;;2.78;;
16669;SDS011;8448;52.034;5.158;2023-07-29T03:06:24;4.20;;;3.08;;
16669;SDS011;8448;52.034;5.158;2023-07-29T03:08:51;5.30;;;2.90;;
16669;SDS011;8448;52.034;5.158;2023-07-29T03:11:18;5.22;;;2.67;;
16669;SDS011;8448;52.034;5.158;2023-07-29T03:13:46;3.40;;;2.47;;
16669;SDS011;8448;52.034;5.158;2023-07-29T03:16:14;3.53;;;2.70;;
16669;SDS011;8448;52.034;5.158;2023-07-29T03:18:48;6.80;;;3.00;;
16669;SDS011;8448;52.034;5.158;2023-07-29T03:21:16;2.70;;;2.38;;
16669;SDS011;8448;52.034;5.158;2023-07-29T03:23:45;4.82;;;2.50;;
16669;SDS011;8448;52.034;5.158;2023-07-29T03:26:12;4.45;;;2.35;;
16669;SDS011;8448;52.034;5.158;2023-07-29T03:28:40;5.90;;;3.20;;
16669;SDS011;8448;52.034;5.158;2023-07-29T03:31:08;4.07;;;2.97;;
16669;SDS011;8448;52.034;5.158;2023-07-29T03:33:36;6.00;;;2.70;;
16669;SDS011;8448;52.034;5.158;2023-07-29T03:36:04;3.83;;;2.80;;
16669;SDS011;8448;52.034;5.158;2023-07-29T03:38:31;3.67;;;2.40;;
16669;SDS011;8448;52.034;5.158;2023-07-29T03:41:01;4.32;;;2.85;;
16669;SDS011;8448;52.034;5.158;2023-07-29T03:43:29;5.13;;;2.92;;
16669;SDS011;8448;52.034;5.158;2023-07-29T03:45:58;4.20;;;2.78;;
16669;SDS011;8448;52.034;5.158;2023-07-29T03:48:26;3.63;;;2.72;;
16669;SDS011;8448;52.034;5.158;2023-07-29T03:50:53;4.13;;;2.65;;
16669;SDS011;8448;52.034;5.158;2023-07-29T03:53:21;4.45;;;2.28;;
16669;SDS011;8448;52.034;5.158;2023-07-29T03:55:49;4.13;;;2.70;;
16669;SDS011;8448;52.034;5.158;2023-07-29T03:58:17;4.15;;;2.33;;
16669;SDS011;8448;52.034;5.158;2023-07-29T04:00:45;3.42;;;2.20;;
16669;SDS011;8448;52.034;5.158;2023-07-29T04:03:13;4.10;;;2.30;;
16669;SDS011;8448;52.034;5.158;2023-07-29T04:05:41;5.30;;;2.30;;
16669;SDS011;8448;52.034;5.158;2023-07-29T04:08:09;4.47;;;2.40;;
16669;SDS011;8448;52.034;5.158;2023-07-29T04:10:36;3.08;;;2.08;;
16669;SDS011;8448;52.034;5.158;2023-07-29T04:13:04;4.32;;;2.42;;
16669;SDS011;8448;52.034;5.158;2023-07-29T04:15:33;3.03;;;2.20;;
16669;SDS011;8448;52.034;5.158;2023-07-29T04:18:00;3.00;;;2.50;;
16669;SDS011;8448;52.034;5.158;2023-07-29T04:20:28;3.33;;;2.15;;
16669;SDS011;8448;52.034;5.158;2023-07-29T04:22:56;3.50;;;2.60;;
16669;SDS011;8448;52.034;5.158;2023-07-29T04:25:23;3.00;;;2.50;;
16669;SDS011;8448;52.034;5.158;2023-07-29T04:27:51;4.50;;;2.33;;
16669;SDS011;8448;52.034;5.158;2023-07-29T04:30:18;2.90;;;2.28;;
16669;SDS011;8448;52.034;5.158;2023-07-29T04:32:47;5.00;;;2.97;;
16669;SDS011;8448;52.034;5.158;2023-07-29T04:35:15;4.28;;;2.72;;
16669;SDS011;8448;52.034;5.158;2023-07-29T04:37:42;3.08;;;2.38;;
16669;SDS011;8448;52.034;5.158;2023-07-29T04:40:10;3.25;;;2.35;;
16669;SDS011;8448;52.034;5.158;2023-07-29T04:42:38;4.05;;;2.72;;
16669;SDS011;8448;52.034;5.158;2023-07-29T04:45:05;5.35;;;2.80;;
16669;SDS011;8448;52.034;5.158;2023-07-29T04:47:33;3.88;;;2.75;;
16669;SDS011;8448;52.034;5.158;2023-07-29T04:50:02;5.35;;;2.90;;
16669;SDS011;8448;52.034;5.158;2023-07-29T04:52:29;4.78;;;2.65;;
16669;SDS011;8448;52.034;5.158;2023-07-29T04:54:57;4.68;;;2.90;;
16669;SDS011;8448;52.034;5.158;2023-07-29T04:57:24;5.25;;;2.70;;
16669;SDS011;8448;52.034;5.158;2023-07-29T05:02:21;4.22;;;3.20;;
16669;SDS011;8448;52.034;5.158;2023-07-29T05:04:48;5.45;;;3.25;;
16669;SDS011;8448;52.034;5.158;2023-07-29T05:07:17;4.88;;;3.38;;
16669;SDS011;8448;52.034;5.158;2023-07-29T05:09:44;4.72;;;3.20;;
16669;SDS011;8448;52.034;5.158;2023-07-29T05:12:13;4.75;;;3.25;;
16669;SDS011;8448;52.034;5.158;2023-07-29T05:14:40;4.15;;;3.33;;
16669;SDS011;8448;52.034;5.158;2023-07-29T05:17:08;4.97;;;3.42;;
16669;SDS011;8448;52.034;5.158;2023-07-29T05:19:35;7.60;;;3.90;;
16669;SDS011;8448;52.034;5.158;2023-07-29T05:22:03;4.88;;;3.65;;
16669;SDS011;8448;52.034;5.158;2023-07-29T05:24:32;5.30;;;3.70;;
16669;SDS011;8448;52.034;5.158;2023-07-29T05:26:59;5.38;;;3.60;;
16669;SDS011;8448;52.034;5.158;2023-07-29T05:29:27;5.35;;;3.45;;
16669;SDS011;8448;52.034;5.158;2023-07-29T05:31:54;5.22;;;3.70;;
16669;SDS011;8448;52.034;5.158;2023-07-29T05:34:22;6.88;;;3.90;;
16669;SDS011;8448;52.034;5.158;2023-07-29T05:36:49;6.30;;;3.92;;
16669;SDS011;8448;52.034;5.158;2023-07-29T05:39:17;7.68;;;4.35;;
16669;SDS011;8448;52.034;5.158;2023-07-29T05:41:45;8.13;;;4.25;;
16669;SDS011;8448;52.034;5.158;2023-07-29T05:44:13;7.78;;;4.07;;
16669;SDS011;8448;52.034;5.158;2023-07-29T05:46:40;8.10;;;4.38;;
16669;SDS011;8448;52.034;5.158;2023-07-29T05:49:08;7.55;;;4.53;;
16669;SDS011;8448;52.034;5.158;2023-07-29T05:51:35;5.65;;;3.80;;
16669;SDS011;8448;52.034;5.158;2023-07-29T05:54:03;5.82;;;4.60;;
16669;SDS011;8448;52.034;5.158;2023-07-29T05:56:30;6.00;;;4.40;;
16669;SDS011;8448;52.034;5.158;2023-07-29T05:58:59;6.57;;;4.57;;
16669;SDS011;8448;52.034;5.158;2023-07-29T06:01:26;8.45;;;4.75;;
16669;SDS011;8448;52.034;5.158;2023-07-29T06:03:54;8.40;;;4.50;;
16669;SDS011;8448;52.034;5.158;2023-07-29T06:06:22;7.65;;;4.95;;
16669;SDS011;8448;52.034;5.158;2023-07-29T06:08:50;7.25;;;4.40;;
16669;SDS011;8448;52.034;5.158;2023-07-29T06:11:17;5.90;;;4.53;;
16669;SDS011;8448;52.034;5.158;2023-07-29T06:13:45;7.85;;;4.65;;
16669;SDS011;8448;52.034;5.158;2023-07-29T06:16:15;6.70;;;4.72;;
16669;SDS011;8448;52.034;5.158;2023-07-29T06:18:43;7.80;;;4.40;;
16669;SDS011;8448;52.034;5.158;2023-07-29T06:21:11;6.55;;;4.15;;
16669;SDS011;8448;52.034;5.158;2023-07-29T06:23:42;6.22;;;4.43;;
16669;SDS011;8448;52.034;5.158;2023-07-29T06:26:09;9.82;;;5.20;;
16669;SDS011;8448;52.034;5.158;2023-07-29T06:28:37;8.30;;;5.22;;
16669;SDS011;8448;52.034;5.158;2023-07-29T06:31:04;10.07;;;4.70;;
16669;SDS011;8448;52.034;5.158;2023-07-29T06:33:33;6.75;;;4.70;;
16669;SDS011;8448;52.034;5.158;2023-07-29T06:36:00;8.82;;;5.30;;
16669;SDS011;8448;52.034;5.158;2023-07-29T06:38:28;8.00;;;5.13;;
16669;SDS011;8448;52.034;5.158;2023-07-29T06:40:55;8.85;;;4.80;;
16669;SDS011;8448;52.034;5.158;2023-07-29T06:43:22;6.40;;;4.95;;
16669;SDS011;8448;52.034;5.158;2023-07-29T06:45:50;6.57;;;4.80;;
16669;SDS011;8448;52.034;5.158;2023-07-29T06:48:18;6.68;;;4.78;;
16669;SDS011;8448;52.034;5.158;2023-07-29T06:50:46;7.38;;;5.10;;
16669;SDS011;8448;52.034;5.158;2023-07-29T06:53:15;7.40;;;5.18;;
16669;SDS011;8448;52.034;5.158;2023-07-29T06:55:43;7.53;;;4.78;;
16669;SDS011;8448;52.034;5.158;2023-07-29T06:58:10;5.95;;;4.45;;
16669;SDS011;8448;52.034;5.158;2023-07-29T07:00:38;8.38;;;4.85;;
16669;SDS011;8448;52.034;5.158;2023-07-29T07:03:05;7.18;;;4.95;;
16669;SDS011;8448;52.034;5.158;2023-07-29T07:05:32;7.95;;;4.40;;
16669;SDS011;8448;52.034;5.158;2023-07-29T07:08:02;7.97;;;4.68;;
16669;SDS011;8448;52.034;5.158;2023-07-29T07:10:29;7.50;;;5.10;;
16669;SDS011;8448;52.034;5.158;2023-07-29T07:12:58;7.75;;;5.55;;
16669;SDS011;8448;52.034;5.158;2023-07-29T07:15:26;6.30;;;5.07;;
16669;SDS011;8448;52.034;5.158;2023-07-29T07:17:53;7.22;;;4.95;;
16669;SDS011;8448;52.034;5.158;2023-07-29T07:20:21;6.82;;;5.35;;
16669;SDS011;8448;52.034;5.158;2023-07-29T07:22:48;8.05;;;5.32;;
16669;SDS011;8448;52.034;5.158;2023-07-29T07:25:17;8.85;;;5.00;;
16669;SDS011;8448;52.034;5.158;2023-07-29T07:27:44;6.93;;;4.32;;
16669;SDS011;8448;52.034;5.158;2023-07-29T07:30:12;5.22;;;4.13;;
16669;SDS011;8448;52.034;5.158;2023-07-29T07:32:39;5.85;;;4.50;;
16669;SDS011;8448;52.034;5.158;2023-07-29T07:35:07;8.80;;;4.90;;
16669;SDS011;8448;52.034;5.158;2023-07-29T07:37:34;5.97;;;4.97;;
16669;SDS011;8448;52.034;5.158;2023-07-29T07:40:02;6.00;;;4.70;;
16669;SDS011;8448;52.034;5.158;2023-07-29T07:42:31;6.05;;;4.65;;
16669;SDS011;8448;52.034;5.158;2023-07-29T07:44:58;5.32;;;4.60;;
16669;SDS011;8448;52.034;5.158;2023-07-29T07:47:26;6.10;;;4.88;;
16669;SDS011;8448;52.034;5.158;2023-07-29T07:49:53;6.65;;;4.78;;
16669;SDS011;8448;52.034;5.158;2023-07-29T07:52:20;6.03;;;4.25;;
16669;SDS011;8448;52.034;5.158;2023-07-29T07:54:51;6.85;;;4.40;;
16669;SDS011;8448;52.034;5.158;2023-07-29T07:57:19;4.30;;;3.72;;
16669;SDS011;8448;52.034;5.158;2023-07-29T07:59:48;4.43;;;3.47;;
16669;SDS011;8448;52.034;5.158;2023-07-29T08:02:17;5.03;;;3.75;;
16669;SDS011;8448;52.034;5.158;2023-07-29T08:04:45;5.07;;;3.58;;
16669;SDS011;8448;52.034;5.158;2023-07-29T08:07:13;5.30;;;3.65;;
16669;SDS011;8448;52.034;5.158;2023-07-29T08:09:40;5.25;;;3.20;;
16669;SDS011;8448;52.034;5.158;2023-07-29T08:12:08;4.72;;;3.63;;
16669;SDS011;8448;52.034;5.158;2023-07-29T08:14:35;7.70;;;3.88;;
16669;SDS011;8448;52.034;5.158;2023-07-29T08:17:04;5.28;;;3.80;;
16669;SDS011;8448;52.034;5.158;2023-07-29T08:19:31;4.03;;;3.35;;
16669;SDS011;8448;52.034;5.158;2023-07-29T08:22:01;3.65;;;3.35;;
16669;SDS011;8448;52.034;5.158;2023-07-29T08:24:29;5.05;;;3.60;;
16669;SDS011;8448;52.034;5.158;2023-07-29T08:26:56;4.10;;;3.30;;
16669;SDS011;8448;52.034;5.158;2023-07-29T08:29:24;4.65;;;3.10;;
16669;SDS011;8448;52.034;5.158;2023-07-29T08:31:51;5.55;;;3.72;;
16669;SDS011;8448;52.034;5.158;2023-07-29T08:34:21;6.55;;;3.85;;
16669;SDS011;8448;52.034;5.158;2023-07-29T08:36:49;5.88;;;4.32;;
16669;SDS011;8448;52.034;5.158;2023-07-29T08:39:16;5.45;;;4.53;;
16669;SDS011;8448;52.034;5.158;2023-07-29T08:41:45;5.80;;;4.40;;
16669;SDS011;8448;52.034;5.158;2023-07-29T08:44:18;8.35;;;5.32;;
16669;SDS011;8448;52.034;5.158;2023-07-29T08:46:48;5.50;;;4.72;;
16669;SDS011;8448;52.034;5.158;2023-07-29T08:49:16;6.18;;;5.00;;
16669;SDS011;8448;52.034;5.158;2023-07-29T08:51:47;5.97;;;4.80;;
16669;SDS011;8448;52.034;5.158;2023-07-29T08:54:14;6.65;;;4.47;;
16669;SDS011;8448;52.034;5.158;2023-07-29T08:56:42;6.35;;;4.45;;
16669;SDS011;8448;52.034;5.158;2023-07-29T08:59:10;4.78;;;4.32;;
16669;SDS011;8448;52.034;5.158;2023-07-29T09:01:38;4.80;;;3.97;;
16669;SDS011;8448;52.034;5.158;2023-07-29T09:04:05;6.60;;;4.32;;
16669;SDS011;8448;52.034;5.158;2023-07-29T09:06:32;5.82;;;4.28;;
16669;SDS011;8448;52.034;5.158;2023-07-29T09:09:02;5.22;;;4.60;;
16669;SDS011;8448;52.034;5.158;2023-07-29T09:11:30;6.13;;;4.55;;
16669;SDS011;8448;52.034;5.158;2023-07-29T09:13:58;4.85;;;4.00;;
16669;SDS011;8448;52.034;5.158;2023-07-29T09:16:26;7.15;;;4.30;;
16669;SDS011;8448;52.034;5.158;2023-07-29T09:18:53;6.07;;;4.50;;
16669;SDS011;8448;52.034;5.158;2023-07-29T09:21:23;5.45;;;4.47;;
16669;SDS011;8448;52.034;5.158;2023-07-29T09:23:51;5.05;;;4.55;;
16669;SDS011;8448;52.034;5.158;2023-07-29T09:26:23;5.60;;;3.83;;
16669;SDS011;8448;52.034;5.158;2023-07-29T09:28:51;4.40;;;3.92;;
16669;SDS011;8448;52.034;5.158;2023-07-29T09:31:20;4.45;;;4.05;;
16669;SDS011;8448;52.034;5.158;2023-07-29T09:33:48;4.85;;;4.18;;
16669;SDS011;8448;52.034;5.158;2023-07-29T09:36:16;6.25;;;4.00;;
16669;SDS011;8448;52.034;5.158;2023-07-29T09:38:44;4.13;;;3.67;;
16669;SDS011;8448;52.034;5.158;2023-07-29T09:41:11;3.97;;;3.60;;
16669;SDS011;8448;52.034;5.158;2023-07-29T09:43:41;3.85;;;3.33;;
16669;SDS011;8448;52.034;5.158;2023-07-29T09:46:09;3.63;;;3.20;;
16669;SDS011;8448;52.034;5.158;2023-07-29T09:48:37;3.85;;;3.50;;
16669;SDS011;8448;52.034;5.158;2023-07-29T09:51:11;4.68;;;3.30;;
16669;SDS011;8448;52.034;5.158;2023-07-29T09:53:40;3.92;;;3.10;;
16669;SDS011;8448;52.034;5.158;2023-07-29T09:56:08;3.58;;;3.03;;
16669;SDS011;8448;52.034;5.158;2023-07-29T09:58:36;4.20;;;2.80;;
16669;SDS011;8448;52.034;5.158;2023-07-29T10:01:05;4.10;;;2.90;;
16669;SDS011;8448;52.034;5.158;2023-07-29T10:03:33;3.70;;;2.58;;
16669;SDS011;8448;52.034;5.158;2023-07-29T10:06:02;2.80;;;2.60;;
16669;SDS011;8448;52.034;5.158;2023-07-29T10:08:30;4.25;;;2.50;;
16669;SDS011;8448;52.034;5.158;2023-07-29T10:11:00;3.70;;;2.65;;
16669;SDS011;8448;52.034;5.158;2023-07-29T10:13:28;2.92;;;2.67;;
16669;SDS011;8448;52.034;5.158;2023-07-29T10:15:55;2.83;;;2.40;;
16669;SDS011;8448;52.034;5.158;2023-07-29T10:18:24;2.70;;;2.20;;
16669;SDS011;8448;52.034;5.158;2023-07-29T10:20:53;2.72;;;2.30;;
16669;SDS011;8448;52.034;5.158;2023-07-29T10:23:22;2.90;;;2.42;;
16669;SDS011;8448;52.034;5.158;2023-07-29T10:25:54;3.65;;;2.20;;
16669;SDS011;8448;52.034;5.158;2023-07-29T10:28:25;2.72;;;2.20;;
16669;SDS011;8448;52.034;5.158;2023-07-29T10:30:53;3.35;;;2.15;;
16669;SDS011;8448;52.034;5.158;2023-07-29T10:33:20;2.67;;;2.30;;
16669;SDS011;8448;52.034;5.158;2023-07-29T10:35:49;5.55;;;2.67;;
16669;SDS011;8448;52.034;5.158;2023-07-29T10:38:18;4.32;;;2.60;;
16669;SDS011;8448;52.034;5.158;2023-07-29T10:40:49;5.70;;;2.50;;
16669;SDS011;8448;52.034;5.158;2023-07-29T10:43:24;2.42;;;2.13;;
16669;SDS011;8448;52.034;5.158;2023-07-29T10:45:52;3.80;;;2.47;;
16669;SDS011;8448;52.034;5.158;2023-07-29T10:48:39;2.60;;;2.30;;
16669;SDS011;8448;52.034;5.158;2023-07-29T10:51:25;3.10;;;2.10;;
16669;SDS011;8448;52.034;5.158;2023-07-29T10:53:55;3.75;;;1.85;;
16669;SDS011;8448;52.034;5.158;2023-07-29T10:56:27;2.40;;;1.80;;
16669;SDS011;8448;52.034;5.158;2023-07-29T10:58:56;2.80;;;1.88;;
16669;SDS011;8448;52.034;5.158;2023-07-29T11:01:28;2.35;;;2.00;;
16669;SDS011;8448;52.034;5.158;2023-07-29T11:07:03;2.42;;;2.22;;
16669;SDS011;8448;52.034;5.158;2023-07-29T11:09:52;2.40;;;2.17;;
16669;SDS011;8448;52.034;5.158;2023-07-29T11:12:33;2.90;;;2.17;;
16669;SDS011;8448;52.034;5.158;2023-07-29T11:15:04;2.45;;;1.85;;
16669;SDS011;8448;52.034;5.158;2023-07-29T11:17:39;4.75;;;2.30;;
16669;SDS011;8448;52.034;5.158;2023-07-29T11:20:07;1.90;;;1.70;;
16669;SDS011;8448;52.034;5.158;2023-07-29T11:22:36;2.83;;;2.10;;
16669;SDS011;8448;52.034;5.158;2023-07-29T11:25:04;2.50;;;2.20;;
16669;SDS011;8448;52.034;5.158;2023-07-29T11:27:33;4.72;;;2.10;;
16669;SDS011;8448;52.034;5.158;2023-07-29T11:30:01;4.43;;;2.60;;
16669;SDS011;8448;52.034;5.158;2023-07-29T11:32:30;3.83;;;2.70;;
16669;SDS011;8448;52.034;5.158;2023-07-29T11:35:01;3.15;;;2.42;;
16669;SDS011;8448;52.034;5.158;2023-07-29T11:37:29;2.67;;;2.47;;
16669;SDS011;8448;52.034;5.158;2023-07-29T11:40:01;2.90;;;2.60;;
16669;SDS011;8448;52.034;5.158;2023-07-29T11:42:30;2.95;;;2.42;;
16669;SDS011;8448;52.034;5.158;2023-07-29T11:45:00;4.10;;;2.67;;
16669;SDS011;8448;52.034;5.158;2023-07-29T11:47:29;4.07;;;2.58;;
16669;SDS011;8448;52.034;5.158;2023-07-29T11:50:00;3.13;;;2.80;;
16669;SDS011;8448;52.034;5.158;2023-07-29T11:52:30;4.90;;;3.15;;
16669;SDS011;8448;52.034;5.158;2023-07-29T11:54:59;3.28;;;2.67;;
16669;SDS011;8448;52.034;5.158;2023-07-29T11:57:28;2.50;;;2.30;;
16669;SDS011;8448;52.034;5.158;2023-07-29T11:59:56;3.17;;;2.70;;
16669;SDS011;8448;52.034;5.158;2023-07-29T12:02:24;3.05;;;2.50;;
16669;SDS011;8448;52.034;5.158;2023-07-29T12:04:52;2.65;;;2.45;;
16669;SDS011;8448;52.034;5.158;2023-07-29T12:07:19;4.68;;;2.60;;
16669;SDS011;8448;52.034;5.158;2023-07-29T12:09:47;3.05;;;2.72;;
16669;SDS011;8448;52.034;5.158;2023-07-29T12:12:16;3.58;;;2.78;;
16669;SDS011;8448;52.034;5.158;2023-07-29T12:14:44;2.80;;;2.50;;
16669;SDS011;8448;52.034;5.158;2023-07-29T12:17:12;3.50;;;2.50;;
16669;SDS011;8448;52.034;5.158;2023-07-29T12:19:40;2.20;;;1.95;;
16669;SDS011;8448;52.034;5.158;2023-07-29T12:22:08;2.47;;;2.28;;
16669;SDS011;8448;52.034;5.158;2023-07-29T12:24:37;3.97;;;2.22;;
16669;SDS011;8448;52.034;5.158;2023-07-29T12:27:10;2.30;;;2.10;;
16669;SDS011;8448;52.034;5.158;2023-07-29T12:29:42;2.65;;;2.20;;
16669;SDS011;8448;52.034;5.158;2023-07-29T12:32:11;2.25;;;2.00;;
16669;SDS011;8448;52.034;5.158;2023-07-29T12:34:39;2.53;;;2.05;;
16669;SDS011;8448;52.034;5.158;2023-07-29T12:37:06;2.60;;;2.28;;
16669;SDS011;8448;52.034;5.158;2023-07-29T12:39:34;2.20;;;1.92;;
16669;SDS011;8448;52.034;5.158;2023-07-29T12:42:06;2.25;;;1.98;;
16669;SDS011;8448;52.034;5.158;2023-07-29T12:44:34;2.40;;;2.10;;
16669;SDS011;8448;52.034;5.158;2023-07-29T12:47:05;2.75;;;1.77;;
16669;SDS011;8448;52.034;5.158;2023-07-29T12:49:34;4.18;;;1.98;;
16669;SDS011;8448;52.034;5.158;2023-07-29T12:52:01;1.60;;;1.50;;
16669;SDS011;8448;52.034;5.158;2023-07-29T12:54:29;1.55;;;1.33;;
16669;SDS011;8448;52.034;5.158;2023-07-29T12:56:56;2.20;;;1.70;;
16669;SDS011;8448;52.034;5.158;2023-07-29T12:59:23;2.03;;;1.60;;
16669;SDS011;8448;52.034;5.158;2023-07-29T13:01:51;3.28;;;1.73;;
16669;SDS011;8448;52.034;5.158;2023-07-29T13:04:20;4.45;;;1.73;;
16669;SDS011;8448;52.034;5.158;2023-07-29T13:06:47;2.88;;;1.63;;
16669;SDS011;8448;52.034;5.158;2023-07-29T13:09:14;2.45;;;1.40;;
16669;SDS011;8448;52.034;5.158;2023-07-29T13:11:42;1.73;;;1.60;;
16669;SDS011;8448;52.034;5.158;2023-07-29T13:14:09;1.65;;;1.33;;
16669;SDS011;8448;52.034;5.158;2023-07-29T13:16:36;2.08;;;1.73;;
16669;SDS011;8448;52.034;5.158;2023-07-29T13:19:04;1.90;;;1.70;;
16669;SDS011;8448;52.034;5.158;2023-07-29T13:21:33;1.50;;;1.40;;
16669;SDS011;8448;52.034;5.158;2023-07-29T13:24:00;2.40;;;1.70;;
16669;SDS011;8448;52.034;5.158;2023-07-29T13:26:28;2.38;;;1.50;;
16669;SDS011;8448;52.034;5.158;2023-07-29T13:28:55;1.50;;;1.40;;
16669;SDS011;8448;52.034;5.158;2023-07-29T13:31:23;1.80;;;1.70;;
16669;SDS011;8448;52.034;5.158;2023-07-29T13:33:50;2.38;;;1.65;;
16669;SDS011;8448;52.034;5.158;2023-07-29T13:36:17;2.35;;;2.15;;
16669;SDS011;8448;52.034;5.158;2023-07-29T13:38:46;3.03;;;1.73;;
16669;SDS011;8448;52.034;5.158;2023-07-29T13:41:13;3.38;;;1.90;;
16669;SDS011;8448;52.034;5.158;2023-07-29T13:43:41;2.47;;;1.67;;
16669;SDS011;8448;52.034;5.158;2023-07-29T13:46:08;2.03;;;1.83;;
16669;SDS011;8448;52.034;5.158;2023-07-29T13:48:36;2.15;;;1.70;;
16669;SDS011;8448;52.034;5.158;2023-07-29T13:51:03;2.00;;;1.70;;
16669;SDS011;8448;52.034;5.158;2023-07-29T13:53:30;2.25;;;2.08;;
16669;SDS011;8448;52.034;5.158;2023-07-29T13:55:59;2.78;;;2.30;;
16669;SDS011;8448;52.034;5.158;2023-07-29T13:58:27;3.53;;;2.33;;
16669;SDS011;8448;52.034;5.158;2023-07-29T14:00:54;2.10;;;1.80;;
16669;SDS011;8448;52.034;5.158;2023-07-29T14:03:21;1.70;;;1.60;;
16669;SDS011;8448;52.034;5.158;2023-07-29T14:05:49;1.92;;;1.73;;
16669;SDS011;8448;52.034;5.158;2023-07-29T14:08:18;2.65;;;1.70;;
16669;SDS011;8448;52.034;5.158;2023-07-29T14:10:48;1.73;;;1.42;;
16669;SDS011;8448;52.034;5.158;2023-07-29T14:13:17;2.13;;;1.50;;
16669;SDS011;8448;52.034;5.158;2023-07-29T14:15:44;3.53;;;1.55;;
16669;SDS011;8448;52.034;5.158;2023-07-29T14:18:11;2.28;;;1.40;;
16669;SDS011;8448;52.034;5.158;2023-07-29T14:20:39;2.00;;;1.30;;
16669;SDS011;8448;52.034;5.158;2023-07-29T14:23:07;1.95;;;1.20;;
16669;SDS011;8448;52.034;5.158;2023-07-29T14:25:34;2.17;;;1.10;;
16669;SDS011;8448;52.034;5.158;2023-07-29T14:28:01;1.10;;;1.00;;
16669;SDS011;8448;52.034;5.158;2023-07-29T14:30:30;1.40;;;1.30;;
16669;SDS011;8448;52.034;5.158;2023-07-29T14:32:58;2.05;;;1.52;;
16669;SDS011;8448;52.034;5.158;2023-07-29T14:35:25;3.15;;;1.20;;
16669;SDS011;8448;52.034;5.158;2023-07-29T14:37:53;2.95;;;1.08;;
16669;SDS011;8448;52.034;5.158;2023-07-29T14:40:20;1.55;;;1.15;;
16669;SDS011;8448;52.034;5.158;2023-07-29T14:42:47;2.90;;;1.20;;
16669;SDS011;8448;52.034;5.158;2023-07-29T14:45:15;1.80;;;1.20;;
16669;SDS011;8448;52.034;5.158;2023-07-29T14:47:44;3.00;;;1.13;;
16669;SDS011;8448;52.034;5.158;2023-07-29T14:50:11;2.08;;;1.20;;
16669;SDS011;8448;52.034;5.158;2023-07-29T14:52:38;2.10;;;1.40;;
16669;SDS011;8448;52.034;5.158;2023-07-29T14:55:06;2.42;;;1.20;;
16669;SDS011;8448;52.034;5.158;2023-07-29T14:57:34;1.58;;;1.15;;
16669;SDS011;8448;52.034;5.158;2023-07-29T15:00:01;1.75;;;1.30;;
16669;SDS011;8448;52.034;5.158;2023-07-29T15:02:29;2.08;;;1.08;;
16669;SDS011;8448;52.034;5.158;2023-07-29T15:04:58;2.03;;;1.13;;
16669;SDS011;8448;52.034;5.158;2023-07-29T15:07:26;1.80;;;1.15;;
16669;SDS011;8448;52.034;5.158;2023-07-29T15:09:53;2.70;;;1.08;;
16669;SDS011;8448;52.034;5.158;2023-07-29T15:12:20;4.60;;;1.10;;